DLH4XV EDDL-EDDF
Flight info
| Callsign | DLH4XV |
|---|---|
| Flight time | 0h 28m |
| Altitude | 21000 |
| Route | COL5Z COL T911 ROLIS ROLIS5D |
| Aircraft | A320/M-SDE3FGHIRWY/LB1 |
Departure
| Time | 2026-05-08 07:00 |
|---|---|
| Airport | Düsseldorf Airport (EDDL) |
Arrival
| Time | 2026-05-08 07:28 |
|---|---|
| Airport | Frankfurt Main Airport (EDDF) |
| Time | Latitude | Longitude | Altitude | Speed | Heading |
|---|---|---|---|---|---|
| 2026-05-08 06:22 | 51.28052 | 6.76214 | 119 ft | 0 kts | 163° |
| 2026-05-08 06:51 | 51.28067 | 6.76207 | 118 ft | 2 kts | 162° |
| 2026-05-08 06:52 | 51.28082 | 6.76199 | 121 ft | 2 kts | 162° |
| 2026-05-08 06:52 | 51.28097 | 6.76192 | 120 ft | 2 kts | 162° |
| 2026-05-08 06:52 | 51.28112 | 6.76184 | 118 ft | 2 kts | 162° |
| 2026-05-08 06:52 | 51.28127 | 6.76177 | 118 ft | 2 kts | 162° |
| 2026-05-08 06:53 | 51.28136 | 6.76172 | 118 ft | 0 kts | 162° |
| 2026-05-08 06:53 | 51.28128 | 6.76176 | 118 ft | 0 kts | 163° |
| 2026-05-08 06:54 | 51.28122 | 6.76178 | 123 ft | 1 kts | 165° |
| 2026-05-08 06:55 | 51.28108 | 6.76162 | 121 ft | 4 kts | 226° |
| 2026-05-08 06:55 | 51.28087 | 6.76111 | 121 ft | 7 kts | 264° |
| 2026-05-08 06:55 | 51.28102 | 6.76017 | 122 ft | 11 kts | 283° |
| 2026-05-08 06:55 | 51.28073 | 6.75897 | 121 ft | 14 kts | 229° |
| 2026-05-08 06:56 | 51.28010 | 6.75770 | 122 ft | 16 kts | 234° |
| 2026-05-08 06:56 | 51.27969 | 6.75679 | 121 ft | 0 kts | 234° |
| 2026-05-08 06:56 | 51.27965 | 6.75671 | 120 ft | 2 kts | 234° |
| 2026-05-08 06:57 | 51.27949 | 6.75634 | 123 ft | 6 kts | 234° |
| 2026-05-08 06:57 | 51.27933 | 6.75585 | 119 ft | 2 kts | 284° |
| 2026-05-08 06:57 | 51.27944 | 6.75554 | 121 ft | 5 kts | 323° |
| 2026-05-08 06:57 | 51.27987 | 6.75539 | 122 ft | 8 kts | 336° |
| 2026-05-08 06:58 | 51.28045 | 6.75502 | 121 ft | 10 kts | 338° |
| 2026-05-08 06:58 | 51.28094 | 6.75483 | 119 ft | 7 kts | 31° |
| 2026-05-08 06:58 | 51.28122 | 6.75538 | 122 ft | 0 kts | 56° |
| 2026-05-08 06:58 | 51.28123 | 6.75538 | 122 ft | 0 kts | 56° |
| 2026-05-08 07:00 | 51.28129 | 6.75552 | 122 ft | 11 kts | 54° |
| 2026-05-08 07:00 | 51.28359 | 6.76042 | 121 ft | 95 kts | 52° |
| 2026-05-08 07:00 | 51.28898 | 6.77156 | 153 ft | 153 kts | 57° |
| 2026-05-08 07:00 | 51.29518 | 6.78556 | 780 ft | 159 kts | 55° |
| 2026-05-08 07:01 | 51.30212 | 6.79975 | 1555 ft | 166 kts | 54° |
| 2026-05-08 07:01 | 51.30932 | 6.81489 | 2254 ft | 177 kts | 53° |
| 2026-05-08 07:01 | 51.31709 | 6.83122 | 3032 ft | 191 kts | 52° |
| 2026-05-08 07:01 | 51.32544 | 6.84892 | 3920 ft | 210 kts | 52° |
| 2026-05-08 07:02 | 51.33501 | 6.86921 | 4606 ft | 245 kts | 52° |
| 2026-05-08 07:02 | 51.34529 | 6.89257 | 5537 ft | 263 kts | 57° |
| 2026-05-08 07:02 | 51.35213 | 6.92012 | 6704 ft | 272 kts | 80° |
| 2026-05-08 07:02 | 51.35163 | 6.95014 | 7881 ft | 276 kts | 99° |
| 2026-05-08 07:03 | 51.34833 | 6.98066 | 9138 ft | 281 kts | 101° |
| 2026-05-08 07:03 | 51.34486 | 7.01166 | 10362 ft | 287 kts | 101° |
| 2026-05-08 07:03 | 51.34128 | 7.04482 | 10920 ft | 318 kts | 101° |
| 2026-05-08 07:03 | 51.33731 | 7.08128 | 11346 ft | 348 kts | 102° |
| 2026-05-08 07:04 | 51.32991 | 7.11956 | 11736 ft | 374 kts | 115° |
| 2026-05-08 07:04 | 51.31574 | 7.15546 | 12289 ft | 389 kts | 130° |
| 2026-05-08 07:04 | 51.29551 | 7.18448 | 13084 ft | 394 kts | 147° |
| 2026-05-08 07:04 | 51.27084 | 7.20362 | 13914 ft | 397 kts | 162° |
| 2026-05-08 07:05 | 51.24405 | 7.21563 | 14637 ft | 402 kts | 166° |
| 2026-05-08 07:05 | 51.21668 | 7.22695 | 15351 ft | 407 kts | 166° |
| 2026-05-08 07:05 | 51.18914 | 7.23850 | 16045 ft | 411 kts | 166° |
| 2026-05-08 07:05 | 51.16135 | 7.25035 | 16731 ft | 416 kts | 166° |
| 2026-05-08 07:06 | 51.13321 | 7.26284 | 17396 ft | 421 kts | 164° |
| 2026-05-08 07:06 | 51.10601 | 7.28083 | 17930 ft | 428 kts | 153° |
| 2026-05-08 07:06 | 51.08075 | 7.30452 | 18132 ft | 436 kts | 150° |
| 2026-05-08 07:06 | 51.05455 | 7.33056 | 18160 ft | 442 kts | 149° |
| 2026-05-08 07:07 | 51.02818 | 7.35674 | 18152 ft | 442 kts | 149° |
| 2026-05-08 07:07 | 51.00205 | 7.38241 | 18146 ft | 442 kts | 150° |
| 2026-05-08 07:07 | 50.97622 | 7.40760 | 18142 ft | 442 kts | 150° |
| 2026-05-08 07:07 | 50.94999 | 7.43307 | 18136 ft | 442 kts | 150° |
| 2026-05-08 07:08 | 50.92374 | 7.45852 | 18137 ft | 442 kts | 150° |
| 2026-05-08 07:08 | 50.89755 | 7.48395 | 18134 ft | 442 kts | 150° |
| 2026-05-08 07:08 | 50.87131 | 7.50935 | 18127 ft | 442 kts | 150° |
| 2026-05-08 07:08 | 50.84509 | 7.53468 | 18129 ft | 442 kts | 150° |
| 2026-05-08 07:09 | 50.81886 | 7.55999 | 18129 ft | 442 kts | 150° |
| 2026-05-08 07:09 | 50.79256 | 7.58518 | 18126 ft | 441 kts | 151° |
| 2026-05-08 07:09 | 50.76506 | 7.60665 | 18126 ft | 440 kts | 158° |
| 2026-05-08 07:09 | 50.73691 | 7.62552 | 18127 ft | 440 kts | 159° |
| 2026-05-08 07:10 | 50.70866 | 7.64421 | 18120 ft | 440 kts | 159° |
| 2026-05-08 07:10 | 50.68043 | 7.66291 | 18122 ft | 440 kts | 159° |
| 2026-05-08 07:10 | 50.65223 | 7.68160 | 18123 ft | 440 kts | 159° |
| 2026-05-08 07:10 | 50.62461 | 7.69992 | 17637 ft | 427 kts | 159° |
| 2026-05-08 07:11 | 50.59704 | 7.71817 | 16819 ft | 430 kts | 159° |
| 2026-05-08 07:11 | 50.56990 | 7.73613 | 16308 ft | 427 kts | 158° |
| 2026-05-08 07:11 | 50.54257 | 7.75422 | 15847 ft | 424 kts | 158° |
| 2026-05-08 07:11 | 50.51545 | 7.77208 | 15405 ft | 421 kts | 158° |
| 2026-05-08 07:12 | 50.48851 | 7.78982 | 14988 ft | 419 kts | 158° |
| 2026-05-08 07:12 | 50.46169 | 7.80751 | 14579 ft | 416 kts | 158° |
| 2026-05-08 07:12 | 50.43553 | 7.82660 | 14161 ft | 415 kts | 151° |
| 2026-05-08 07:12 | 50.41201 | 7.85274 | 13736 ft | 413 kts | 143° |
| 2026-05-08 07:13 | 50.38963 | 7.88072 | 13277 ft | 409 kts | 142° |
| 2026-05-08 07:13 | 50.36792 | 7.90803 | 12827 ft | 392 kts | 142° |
| 2026-05-08 07:13 | 50.34703 | 7.93413 | 12381 ft | 377 kts | 142° |
| 2026-05-08 07:13 | 50.32684 | 7.95921 | 11933 ft | 365 kts | 143° |
| 2026-05-08 07:14 | 50.31376 | 7.97542 | 11649 ft | 357 kts | 143° |
| 2026-05-08 07:14 | 50.29448 | 7.99925 | 11206 ft | 348 kts | 143° |
| 2026-05-08 07:14 | 50.27597 | 8.02281 | 10788 ft | 340 kts | 139° |
| 2026-05-08 07:14 | 50.26180 | 8.05181 | 10356 ft | 335 kts | 117° |
| 2026-05-08 07:15 | 50.25460 | 8.08601 | 9950 ft | 329 kts | 105° |
| 2026-05-08 07:15 | 50.24940 | 8.12046 | 9500 ft | 324 kts | 104° |
| 2026-05-08 07:15 | 50.24428 | 8.15446 | 9047 ft | 319 kts | 104° |
| 2026-05-08 07:15 | 50.23916 | 8.18751 | 8572 ft | 310 kts | 104° |
| 2026-05-08 07:16 | 50.23404 | 8.21987 | 8118 ft | 302 kts | 104° |
| 2026-05-08 07:16 | 50.22899 | 8.25130 | 7660 ft | 294 kts | 104° |
| 2026-05-08 07:16 | 50.22403 | 8.28195 | 7230 ft | 286 kts | 104° |
| 2026-05-08 07:16 | 50.21923 | 8.31165 | 6795 ft | 280 kts | 104° |
| 2026-05-08 07:17 | 50.21454 | 8.34057 | 6397 ft | 278 kts | 104° |
| 2026-05-08 07:17 | 50.20864 | 8.36922 | 5964 ft | 277 kts | 116° |
| 2026-05-08 07:17 | 50.19729 | 8.39305 | 5523 ft | 275 kts | 141° |
| 2026-05-08 07:17 | 50.18048 | 8.40663 | 5165 ft | 271 kts | 160° |
| 2026-05-08 07:18 | 50.16276 | 8.41587 | 5007 ft | 268 kts | 162° |
| 2026-05-08 07:18 | 50.14493 | 8.42404 | 4973 ft | 268 kts | 170° |
| 2026-05-08 07:18 | 50.12649 | 8.42342 | 4973 ft | 267 kts | 194° |
| 2026-05-08 07:18 | 50.10973 | 8.41154 | 4982 ft | 267 kts | 219° |
| 2026-05-08 07:19 | 50.09826 | 8.38914 | 4994 ft | 267 kts | 244° |
| 2026-05-08 07:19 | 50.09158 | 8.36228 | 5009 ft | 266 kts | 251° |
| 2026-05-08 07:19 | 50.08556 | 8.33495 | 5004 ft | 266 kts | 251° |
| 2026-05-08 07:19 | 50.07940 | 8.30776 | 5001 ft | 266 kts | 250° |
| 2026-05-08 07:20 | 50.07308 | 8.28069 | 4999 ft | 266 kts | 250° |
| 2026-05-08 07:20 | 50.06664 | 8.25355 | 4998 ft | 267 kts | 250° |
| 2026-05-08 07:20 | 50.06015 | 8.22647 | 5003 ft | 267 kts | 249° |
| 2026-05-08 07:20 | 50.05359 | 8.19935 | 5000 ft | 268 kts | 249° |
| 2026-05-08 07:21 | 50.04700 | 8.17228 | 4994 ft | 263 kts | 248° |
| 2026-05-08 07:21 | 50.03754 | 8.14927 | 4979 ft | 246 kts | 224° |
| 2026-05-08 07:21 | 50.02399 | 8.13502 | 4976 ft | 229 kts | 202° |
| 2026-05-08 07:21 | 50.00872 | 8.12963 | 4978 ft | 224 kts | 181° |
| 2026-05-08 07:22 | 49.99337 | 8.13277 | 4983 ft | 223 kts | 161° |
| 2026-05-08 07:22 | 49.97946 | 8.14338 | 4993 ft | 223 kts | 148° |
| 2026-05-08 07:22 | 49.96681 | 8.15683 | 4986 ft | 215 kts | 135° |
| 2026-05-08 07:22 | 49.96029 | 8.17643 | 4963 ft | 199 kts | 95° |
| 2026-05-08 07:23 | 49.96232 | 8.19674 | 4746 ft | 191 kts | 70° |
| 2026-05-08 07:23 | 49.96750 | 8.21552 | 4521 ft | 182 kts | 65° |
| 2026-05-08 07:23 | 49.97265 | 8.23285 | 4274 ft | 177 kts | 65° |
| 2026-05-08 07:23 | 49.97746 | 8.25028 | 3993 ft | 174 kts | 67° |
| 2026-05-08 07:24 | 49.98195 | 8.26754 | 3713 ft | 171 kts | 68° |
| 2026-05-08 07:24 | 49.98614 | 8.28472 | 3454 ft | 168 kts | 69° |
| 2026-05-08 07:24 | 49.99021 | 8.30163 | 3191 ft | 166 kts | 69° |
| 2026-05-08 07:24 | 49.99422 | 8.31824 | 2933 ft | 160 kts | 69° |
| 2026-05-08 07:25 | 49.99797 | 8.33396 | 2690 ft | 149 kts | 69° |
| 2026-05-08 07:25 | 50.00141 | 8.34830 | 2472 ft | 137 kts | 69° |
| 2026-05-08 07:25 | 50.00752 | 8.37382 | 2146 ft | 126 kts | 69° |
| 2026-05-08 07:26 | 50.01065 | 8.38689 | 1969 ft | 131 kts | 69° |
| 2026-05-08 07:26 | 50.01379 | 8.39999 | 1767 ft | 129 kts | 69° |
| 2026-05-08 07:26 | 50.01688 | 8.41292 | 1575 ft | 129 kts | 69° |
| 2026-05-08 07:26 | 50.02002 | 8.42599 | 1375 ft | 129 kts | 70° |
| 2026-05-08 07:27 | 50.02315 | 8.43912 | 1172 ft | 131 kts | 70° |
| 2026-05-08 07:27 | 50.02628 | 8.45219 | 975 ft | 128 kts | 69° |
| 2026-05-08 07:27 | 50.02921 | 8.46520 | 807 ft | 128 kts | 69° |
| 2026-05-08 07:27 | 50.03239 | 8.47825 | 654 ft | 130 kts | 68° |
| 2026-05-08 07:28 | 50.03565 | 8.49139 | 473 ft | 131 kts | 69° |
| 2026-05-08 07:28 | 50.03881 | 8.50454 | 364 ft | 123 kts | 69° |
| 2026-05-08 07:28 | 50.04134 | 8.51500 | 353 ft | 80 kts | 69° |
| 2026-05-08 07:28 | 50.04234 | 8.52032 | 351 ft | 38 kts | 88° |
| 2026-05-08 07:29 | 50.04234 | 8.52160 | 351 ft | 1 kts | 93° |
| 2026-05-08 07:29 | 50.04233 | 8.52193 | 351 ft | 5 kts | 95° |
| 2026-05-08 07:29 | 50.04226 | 8.52262 | 355 ft | 8 kts | 98° |
| 2026-05-08 07:29 | 50.04214 | 8.52367 | 353 ft | 12 kts | 101° |
| 2026-05-08 07:30 | 50.04195 | 8.52506 | 359 ft | 15 kts | 102° |
| 2026-05-08 07:30 | 50.04198 | 8.52678 | 355 ft | 18 kts | 70° |
| 2026-05-08 07:30 | 50.04246 | 8.52868 | 356 ft | 20 kts | 68° |
| 2026-05-08 07:30 | 50.04300 | 8.53085 | 359 ft | 23 kts | 69° |
| 2026-05-08 07:31 | 50.04360 | 8.53326 | 358 ft | 25 kts | 69° |
| 2026-05-08 07:31 | 50.04405 | 8.53596 | 351 ft | 27 kts | 87° |
| 2026-05-08 07:31 | 50.04422 | 8.53906 | 351 ft | 30 kts | 82° |
| 2026-05-08 07:31 | 50.04443 | 8.54179 | 354 ft | 26 kts | 84° |
| 2026-05-08 07:32 | 50.04453 | 8.54463 | 351 ft | 24 kts | 96° |
| 2026-05-08 07:32 | 50.04381 | 8.54702 | 355 ft | 26 kts | 139° |
| 2026-05-08 07:32 | 50.04212 | 8.54829 | 352 ft | 28 kts | 160° |
| 2026-05-08 07:32 | 50.04079 | 8.54904 | 351 ft | 11 kts | 159° |
| 2026-05-08 07:33 | 50.04068 | 8.54910 | 357 ft | 0 kts | 159° |
| 2026-05-08 07:34 | 50.04066 | 8.54911 | 358 ft | 1 kts | 159° |
| 2026-05-08 07:34 | 50.04047 | 8.54922 | 353 ft | 5 kts | 160° |
| 2026-05-08 07:35 | 50.04014 | 8.54952 | 357 ft | 6 kts | 121° |
| 2026-05-08 07:35 | 50.04019 | 8.55025 | 353 ft | 7 kts | 71° |
| 2026-05-08 07:35 | 50.04021 | 8.55031 | 352 ft | 0 kts | 54° |
| 2026-05-08 07:35 | 50.04023 | 8.55035 | 351 ft | 1 kts | 58° |
| 2026-05-08 07:36 | 50.04030 | 8.55058 | 359 ft | 3 kts | 67° |
| 2026-05-08 07:36 | 50.04046 | 8.55127 | 351 ft | 12 kts | 71° |
| 2026-05-08 07:36 | 50.04077 | 8.55261 | 354 ft | 14 kts | 70° |
| 2026-05-08 07:36 | 50.04112 | 8.55411 | 357 ft | 15 kts | 70° |
| 2026-05-08 07:37 | 50.04151 | 8.55576 | 356 ft | 17 kts | 70° |
| 2026-05-08 07:37 | 50.04190 | 8.55755 | 354 ft | 18 kts | 71° |
| 2026-05-08 07:37 | 50.04212 | 8.55853 | 357 ft | 0 kts | 71° |
| 2026-05-08 07:38 | 50.04217 | 8.55878 | 359 ft | 6 kts | 72° |
| 2026-05-08 07:38 | 50.04236 | 8.55960 | 352 ft | 11 kts | 66° |
| 2026-05-08 07:38 | 50.04275 | 8.56108 | 358 ft | 17 kts | 69° |
| 2026-05-08 07:38 | 50.04322 | 8.56296 | 353 ft | 19 kts | 69° |
| 2026-05-08 07:39 | 50.04372 | 8.56497 | 358 ft | 21 kts | 69° |
| 2026-05-08 07:39 | 50.04422 | 8.56711 | 352 ft | 22 kts | 71° |
| 2026-05-08 07:39 | 50.04475 | 8.56939 | 359 ft | 23 kts | 70° |
| 2026-05-08 07:39 | 50.04533 | 8.57179 | 358 ft | 24 kts | 69° |
| 2026-05-08 07:40 | 50.04580 | 8.57381 | 356 ft | 8 kts | 71° |
| 2026-05-08 07:40 | 50.04602 | 8.57481 | 354 ft | 11 kts | 71° |
| 2026-05-08 07:40 | 50.04645 | 8.57636 | 359 ft | 18 kts | 69° |
| 2026-05-08 07:40 | 50.04686 | 8.57825 | 355 ft | 19 kts | 71° |
| 2026-05-08 07:41 | 50.04706 | 8.57947 | 351 ft | 11 kts | 124° |
| 2026-05-08 07:41 | 50.04666 | 8.57985 | 356 ft | 6 kts | 166° |
| 2026-05-08 07:41 | 50.04635 | 8.58039 | 351 ft | 8 kts | 103° |
| 2026-05-08 07:41 | 50.04637 | 8.58119 | 354 ft | 5 kts | 53° |
| 2026-05-08 07:42 | 50.04659 | 8.58174 | 354 ft | 7 kts | 63° |
| 2026-05-08 07:42 | 50.04679 | 8.58258 | 354 ft | 12 kts | 73° |
| 2026-05-08 07:42 | 50.04711 | 8.58405 | 351 ft | 15 kts | 67° |
| 2026-05-08 07:42 | 50.04693 | 8.58557 | 351 ft | 10 kts | 87° |
| 2026-05-08 07:43 | 50.04701 | 8.58674 | 354 ft | 12 kts | 76° |
| 2026-05-08 07:43 | 50.04744 | 8.58808 | 351 ft | 13 kts | 73° |
| 2026-05-08 07:43 | 50.04755 | 8.58875 | 351 ft | 7 kts | 64° |
| 2026-05-08 07:43 | 50.04773 | 8.58954 | 356 ft | 9 kts | 72° |
| 2026-05-08 07:44 | 50.04792 | 8.59061 | 354 ft | 11 kts | 75° |
| 2026-05-08 07:44 | 50.04832 | 8.59076 | 351 ft | 7 kts | 329° |
| 2026-05-08 07:44 | 50.04843 | 8.59071 | 351 ft | 0 kts | 359° |